createdAt,value
2022-11-15T00:01:02.146Z,100289.13
2022-11-15T00:03:31.502Z,100283.44
2022-11-15T00:06:04.022Z,100287.94
2022-11-15T00:08:32.485Z,100286.75
2022-11-15T00:11:01.544Z,100275.13
2022-11-15T00:13:30.179Z,100273.59
2022-11-15T00:16:00.041Z,100281.41
2022-11-15T00:18:28.540Z,100275.41
2022-11-15T00:20:57.834Z,100280.03
2022-11-15T00:23:25.444Z,100285.03
2022-11-15T00:25:59.371Z,100280.88
2022-11-15T00:28:27.036Z,100274.91
2022-11-15T00:30:54.713Z,100281.38
2022-11-15T00:33:22.358Z,100276.75
2022-11-15T00:35:50.053Z,100278.56
2022-11-15T00:38:19.012Z,100271.41
2022-11-15T00:40:46.735Z,100261.09
2022-11-15T00:43:14.315Z,100264.91
2022-11-15T00:45:41.975Z,100268.41
2022-11-15T00:48:09.713Z,100259.13
2022-11-15T00:50:37.282Z,100265.44
2022-11-15T00:53:04.872Z,100253.28
2022-11-15T00:55:33.837Z,100256.09
2022-11-15T00:58:01.462Z,100264.91
2022-11-15T01:00:29.186Z,100264.75
2022-11-15T01:02:57.017Z,100257.78
2022-11-15T01:05:24.688Z,100256.44
2022-11-15T01:07:53.715Z,100250.78
2022-11-15T01:10:21.693Z,100245.81
2022-11-15T01:12:51.161Z,100238.84
2022-11-15T01:15:18.920Z,100244.34
2022-11-15T01:17:46.975Z,100241.03
2022-11-15T01:20:14.618Z,100236.38
2022-11-15T01:22:42.200Z,100248.00
2022-11-15T01:25:09.868Z,100235.22
2022-11-15T01:27:37.487Z,100236.53
2022-11-15T01:30:09.172Z,100240.50
2022-11-15T01:32:36.865Z,100235.34
2022-11-15T01:35:04.829Z,100232.69
2022-11-15T01:37:32.447Z,100242.66
2022-11-15T01:40:00.095Z,100244.50
2022-11-15T01:42:27.702Z,100246.34
2022-11-15T01:44:55.780Z,100240.25
2022-11-15T01:47:27.915Z,100230.63
2022-11-15T01:49:59.547Z,100230.94
2022-11-15T01:52:30.832Z,100228.28
2022-11-15T01:55:04.337Z,100239.22
2022-11-15T01:57:32.196Z,100231.44
2022-11-15T02:00:02.414Z,100224.47
2022-11-15T02:02:31.370Z,100224.94
2022-11-15T02:04:59.048Z,100223.47
2022-11-15T02:07:27.385Z,100210.69
2022-11-15T02:09:56.753Z,100207.72
2022-11-15T02:12:25.182Z,100206.34
2022-11-15T02:14:56.487Z,100200.03
2022-11-15T02:17:41.968Z,100200.41
2022-11-15T02:20:37.858Z,100195.09
2022-11-15T02:23:53.454Z,100203.38
2022-11-15T02:26:54.045Z,100202.38
2022-11-15T02:29:34.918Z,100205.06
2022-11-15T02:32:11.880Z,100188.59
2022-11-15T02:34:51.973Z,100179.13
2022-11-15T02:37:28.099Z,100179.97
2022-11-15T02:40:04.399Z,100174.81
2022-11-15T02:42:53.174Z,100172.78
2022-11-15T02:45:28.180Z,100160.47
2022-11-15T02:48:00.216Z,100163.47
2022-11-15T02:50:30.993Z,100167.44
2022-11-15T02:52:58.871Z,100160.47
2022-11-15T02:55:32.244Z,100163.31
2022-11-15T02:58:25.310Z,100167.78
2022-11-15T03:01:01.614Z,100168.94
2022-11-15T03:03:48.296Z,100162.47
2022-11-15T03:06:28.928Z,100164.13
2022-11-15T03:09:05.165Z,100158.00
2022-11-15T03:11:38.439Z,100155.69
2022-11-15T03:14:17.299Z,100164.47
2022-11-15T03:16:50.024Z,100161.50
2022-11-15T03:19:28.093Z,100160.84
2022-11-15T03:21:59.940Z,100163.19
2022-11-15T03:24:30.824Z,100151.03
2022-11-15T03:27:01.894Z,100151.53
2022-11-15T03:29:34.437Z,100148.88
2022-11-15T03:32:05.770Z,100151.19
2022-11-15T03:34:39.301Z,100143.56
2022-11-15T03:37:07.944Z,100147.25
2022-11-15T03:39:35.701Z,100151.88
2022-11-15T03:42:12.109Z,100151.88
2022-11-15T03:44:47.760Z,100148.22
2022-11-15T03:47:20.643Z,100154.53
2022-11-15T03:49:54.280Z,100150.72
2022-11-15T03:52:23.477Z,100157.34
2022-11-15T03:54:56.362Z,100154.53
2022-11-15T03:57:24.244Z,100161.00
2022-11-15T03:59:51.833Z,100154.22
2022-11-15T04:02:19.463Z,100161.53
2022-11-15T04:04:47.117Z,100153.03
2022-11-15T04:07:16.190Z,100161.69
2022-11-15T04:09:58.185Z,100165.16
2022-11-15T04:12:32.508Z,100164.00
2022-11-15T04:15:11.086Z,100169.34
2022-11-15T04:17:41.586Z,100164.69
2022-11-15T04:20:30.159Z,100164.84
2022-11-15T04:23:18.025Z,100160.34
2022-11-15T04:25:46.645Z,100160.00
2022-11-15T04:28:14.272Z,100167.66
2022-11-15T04:30:46.976Z,100169.19
2022-11-15T04:33:14.615Z,100166.50
2022-11-15T04:35:42.438Z,100164.19
2022-11-15T04:38:11.898Z,100158.53
2022-11-15T04:40:42.140Z,100151.88
2022-11-15T04:43:09.732Z,100147.91
2022-11-15T04:45:37.360Z,100145.88
2022-11-15T04:48:05.552Z,100142.59
2022-11-15T04:50:33.166Z,100145.41
2022-11-15T04:53:00.780Z,100147.25
2022-11-15T04:55:29.736Z,100144.75
2022-11-15T04:58:01.524Z,100146.72
2022-11-15T05:00:30.748Z,100147.88
2022-11-15T05:03:16.522Z,100139.44
2022-11-15T05:05:44.112Z,100137.25
2022-11-15T05:08:11.796Z,100133.28
2022-11-15T05:10:40.779Z,100134.94
2022-11-15T05:13:08.445Z,100118.47
2022-11-15T05:15:36.059Z,100112.66
2022-11-15T05:18:03.709Z,100117.97
2022-11-15T05:20:31.367Z,100109.34
2022-11-15T05:22:58.981Z,100115.00
2022-11-15T05:25:28.318Z,100106.31
2022-11-15T05:27:57.387Z,100105.31
2022-11-15T05:30:25.077Z,100109.66
2022-11-15T05:32:52.906Z,100113.00
2022-11-15T05:35:26.823Z,100097.72
2022-11-15T05:37:54.638Z,100105.34
2022-11-15T05:40:22.598Z,100118.31
2022-11-15T05:42:50.396Z,100121.66
2022-11-15T05:45:26.355Z,100127.97
2022-11-15T05:47:56.632Z,100125.13
2022-11-15T05:50:25.098Z,100121.16
2022-11-15T05:52:53.476Z,100110.50
2022-11-15T05:55:21.584Z,100116.16
2022-11-15T05:57:49.313Z,100112.84
2022-11-15T06:00:17.296Z,100100.84
2022-11-15T06:02:46.240Z,100103.81
2022-11-15T06:05:13.950Z,100092.69
2022-11-15T06:07:41.636Z,100101.00
2022-11-15T06:10:10.563Z,100099.31
2022-11-15T06:12:38.207Z,100105.00
2022-11-15T06:15:06.376Z,100108.94
2022-11-15T06:17:33.993Z,100109.94
2022-11-15T06:20:03.024Z,100118.56
2022-11-15T06:22:30.649Z,100117.06
2022-11-15T06:25:02.716Z,100110.47
2022-11-15T06:27:32.757Z,100115.41
2022-11-15T06:30:00.380Z,100113.75
2022-11-15T06:32:28.039Z,100116.25
2022-11-15T06:34:55.701Z,100108.81
2022-11-15T06:37:24.665Z,100109.63
2022-11-15T06:39:52.360Z,100103.97
2022-11-15T06:42:19.960Z,100105.63
2022-11-15T06:44:47.552Z,100100.97
2022-11-15T06:47:15.142Z,100099.31
2022-11-15T06:49:42.819Z,100104.94
2022-11-15T06:52:10.447Z,100105.31
2022-11-15T06:54:39.435Z,100106.28
2022-11-15T06:57:07.391Z,100114.59
2022-11-15T06:59:40.213Z,100119.06
2022-11-15T07:02:08.335Z,100114.13
2022-11-15T07:04:37.083Z,100114.47
2022-11-15T07:07:04.782Z,100110.00
2022-11-15T07:09:32.539Z,100099.72
2022-11-15T07:12:07.474Z,100101.03
2022-11-15T07:14:35.592Z,100102.03
2022-11-15T07:17:05.813Z,100108.84
2022-11-15T07:19:33.697Z,100103.38
2022-11-15T07:22:01.370Z,100105.03
2022-11-15T07:24:28.956Z,100104.34
2022-11-15T07:26:56.644Z,100105.38
2022-11-15T07:29:26.313Z,100105.03
2022-11-15T07:31:53.974Z,100111.03
2022-11-15T07:34:22.401Z,100108.69
2022-11-15T07:36:50.297Z,100119.47
2022-11-15T07:39:17.964Z,100121.31
2022-11-15T07:41:47.237Z,100127.28
2022-11-15T07:44:14.923Z,100126.78
2022-11-15T07:46:43.923Z,100122.31
2022-11-15T07:49:11.555Z,100122.31
2022-11-15T07:51:39.212Z,100118.31
2022-11-15T07:54:06.938Z,100115.66
2022-11-15T07:56:34.651Z,100121.97
2022-11-15T07:59:02.585Z,100125.97
2022-11-15T08:01:30.334Z,100121.66
2022-11-15T08:03:59.372Z,100124.63
2022-11-15T08:06:27.059Z,100135.59
2022-11-15T08:08:54.665Z,100121.97
2022-11-15T08:11:22.340Z,100120.31
2022-11-15T08:13:50.051Z,100119.31
2022-11-15T08:16:17.718Z,100125.47
2022-11-15T08:18:45.475Z,100128.28
2022-11-15T08:21:21.331Z,100124.31
2022-11-15T08:23:49.004Z,100119.47
2022-11-15T08:26:17.529Z,100114.53
2022-11-15T08:28:45.265Z,100104.03
2022-11-15T08:31:17.519Z,100108.69
2022-11-15T08:33:46.241Z,100102.38
2022-11-15T08:36:17.443Z,100097.38
2022-11-15T08:38:45.159Z,100105.34
2022-11-15T08:41:15.973Z,100103.88
2022-11-15T08:43:43.584Z,100100.53
2022-11-15T08:46:14.534Z,100098.72
2022-11-15T08:48:42.223Z,100095.38
2022-11-15T08:51:09.805Z,100099.72
2022-11-15T08:53:38.913Z,100096.06
2022-11-15T08:56:09.557Z,100094.56
2022-11-15T08:58:37.194Z,100097.72
2022-11-15T09:01:05.800Z,100089.41
2022-11-15T09:03:33.478Z,100094.38
2022-11-15T09:06:02.927Z,100094.06
2022-11-15T09:08:47.012Z,100092.69
2022-11-15T09:11:17.592Z,100088.56
2022-11-15T09:13:45.263Z,100082.53
2022-11-15T09:16:13.652Z,100088.38
2022-11-15T09:18:41.370Z,100087.69
2022-11-15T09:21:09.736Z,100084.16
2022-11-15T09:23:37.524Z,100083.47
2022-11-15T09:26:06.704Z,100083.44
2022-11-15T09:28:36.574Z,100085.56
2022-11-15T09:31:06.595Z,100089.56
2022-11-15T09:33:34.820Z,100092.84
2022-11-15T09:36:03.653Z,100089.34
2022-11-15T09:38:31.683Z,100092.72
2022-11-15T09:41:22.091Z,100087.75
2022-11-15T09:44:02.452Z,100093.88
2022-11-15T09:46:38.558Z,100093.56
2022-11-15T09:49:06.446Z,100101.41
2022-11-15T09:51:36.193Z,100089.59
2022-11-15T09:57:07.642Z,100083.91
2022-11-15T09:59:57.474Z,100085.91
2022-11-15T10:02:49.864Z,100078.56
2022-11-15T10:05:21.613Z,100072.09
2022-11-15T10:07:55.453Z,100080.56
2022-11-15T10:10:32.034Z,100073.25
2022-11-15T10:13:00.586Z,100063.31
2022-11-15T10:15:29.647Z,100066.13
2022-11-15T10:18:10.909Z,100064.00
2022-11-15T10:20:48.357Z,100064.00
2022-11-15T10:23:19.292Z,100059.81
2022-11-15T10:25:46.959Z,100049.69
2022-11-15T10:28:18.546Z,100045.03
2022-11-15T10:30:49.473Z,100039.88
2022-11-15T10:33:26.839Z,100039.53
2022-11-15T10:36:23.186Z,100036.03
2022-11-15T10:38:58.316Z,100039.34
2022-11-15T10:41:36.756Z,100040.84
2022-11-15T10:44:13.009Z,100035.66
2022-11-15T10:46:48.074Z,100031.34
2022-11-15T10:49:17.598Z,100032.47
2022-11-15T10:51:48.511Z,100029.63
2022-11-15T10:54:23.218Z,100017.31
2022-11-15T10:56:53.161Z,100004.69
2022-11-15T10:59:27.960Z,99998.34
2022-11-15T11:01:56.994Z,99982.03
2022-11-15T11:04:25.290Z,99988.69
2022-11-15T11:06:54.801Z,99982.66
2022-11-15T11:09:34.768Z,99979.97
2022-11-15T11:12:03.368Z,99968.00
2022-11-15T11:14:33.116Z,99969.66
2022-11-15T11:17:07.965Z,99960.00
2022-11-15T11:19:53.900Z,99961.31
2022-11-15T11:22:27.806Z,99954.78
2022-11-15T11:25:12.969Z,99963.25
2022-11-15T11:27:48.311Z,99959.03
2022-11-15T11:30:20.556Z,99951.75
2022-11-15T11:33:18.662Z,99953.72
2022-11-15T11:35:59.228Z,99939.31
2022-11-15T11:38:51.159Z,99931.84
2022-11-15T11:41:34.746Z,99929.00
2022-11-15T11:44:17.896Z,99931.22
2022-11-15T11:46:51.466Z,99930.84
2022-11-15T11:49:25.609Z,99919.56
2022-11-15T11:51:58.151Z,99916.78
2022-11-15T11:54:36.893Z,99911.63
2022-11-15T11:57:07.704Z,99908.09
2022-11-15T11:59:41.720Z,99904.50
2022-11-15T12:02:18.469Z,99901.09
2022-11-15T12:04:52.032Z,99885.38
2022-11-15T12:07:25.357Z,99882.06
2022-11-15T12:10:00.229Z,99884.09
2022-11-15T12:12:34.305Z,99874.50
2022-11-15T12:15:06.299Z,99867.41
2022-11-15T12:17:34.380Z,99871.56
2022-11-15T12:20:08.778Z,99865.56
2022-11-15T12:22:43.366Z,99871.34
2022-11-15T12:25:19.978Z,99863.09
2022-11-15T12:27:52.553Z,99848.22
2022-11-15T12:30:23.453Z,99853.16
2022-11-15T12:32:57.553Z,99848.84
2022-11-15T12:35:32.509Z,99851.06
2022-11-15T12:38:00.538Z,99849.75
2022-11-15T12:40:34.742Z,99857.94
2022-11-15T12:43:27.922Z,99852.72
2022-11-15T12:45:55.617Z,99854.25
2022-11-15T12:48:50.068Z,99853.88
2022-11-15T12:51:21.608Z,99850.66
2022-11-15T12:53:49.251Z,99839.56
2022-11-15T12:56:25.456Z,99844.97
2022-11-15T12:58:58.758Z,99833.28
2022-11-15T13:01:58.151Z,99836.31
2022-11-15T13:04:28.608Z,99824.81
2022-11-15T13:06:58.959Z,99815.56
2022-11-15T13:09:56.285Z,99816.66
2022-11-15T13:12:56.783Z,99815.81
2022-11-15T13:15:57.525Z,99816.00
2022-11-15T13:18:38.243Z,99810.47
2022-11-15T13:21:37.208Z,99808.00
2022-11-15T13:24:11.997Z,99799.06
2022-11-15T13:26:41.665Z,99790.03
2022-11-15T13:29:18.623Z,99785.97
2022-11-15T13:31:48.095Z,99786.50
2022-11-15T13:37:31.149Z,99776.06
2022-11-15T13:40:17.865Z,99773.66
2022-11-15T13:42:46.012Z,99762.81
2022-11-15T13:45:16.701Z,99766.47
2022-11-15T13:47:44.401Z,99764.78
2022-11-15T13:50:13.320Z,99756.97
2022-11-15T13:52:44.732Z,99752.00
2022-11-15T13:55:15.915Z,99751.16
2022-11-15T13:57:46.983Z,99740.06
2022-11-15T14:00:31.988Z,99742.53
2022-11-15T14:03:09.035Z,99731.41
2022-11-15T14:05:36.880Z,99729.91
2022-11-15T14:08:22.913Z,99726.41
2022-11-15T14:11:08.231Z,99719.78
2022-11-15T14:13:36.193Z,99714.84
2022-11-15T14:16:19.636Z,99709.75
2022-11-15T14:18:50.462Z,99708.88
2022-11-15T14:21:18.840Z,99705.84
2022-11-15T14:23:47.496Z,99700.88
2022-11-15T14:26:30.700Z,99697.31
2022-11-15T14:28:58.614Z,99690.94
2022-11-15T14:31:26.173Z,99692.16
2022-11-15T14:33:53.837Z,99685.63
2022-11-15T14:36:22.846Z,99684.06
2022-11-15T14:38:50.824Z,99674.50
2022-11-15T14:41:23.818Z,99670.63
2022-11-15T14:43:53.769Z,99661.81
2022-11-15T14:46:21.628Z,99652.09
2022-11-15T14:48:49.437Z,99656.84
2022-11-15T14:51:19.148Z,99652.16
2022-11-15T14:53:47.707Z,99659.31
2022-11-15T14:56:17.281Z,99658.69
2022-11-15T14:58:46.231Z,99655.84
2022-11-15T15:01:25.698Z,99644.97
2022-11-15T15:03:55.068Z,99639.50
2022-11-15T15:06:22.665Z,99635.84
2022-11-15T15:08:51.857Z,99637.03
2022-11-15T15:11:23.948Z,99637.25
2022-11-15T15:13:51.578Z,99628.41
2022-11-15T15:16:20.563Z,99636.97
2022-11-15T15:18:48.643Z,99631.22
2022-11-15T15:21:22.643Z,99625.88
2022-11-15T15:23:50.556Z,99623.00
2022-11-15T15:26:18.490Z,99626.72
2022-11-15T15:28:46.114Z,99617.31
2022-11-15T15:31:13.894Z,99608.84
2022-11-15T15:33:43.136Z,99615.84
2022-11-15T15:36:13.255Z,99611.91
2022-11-15T15:38:42.297Z,99609.44
2022-11-15T15:41:12.429Z,99608.44
2022-11-15T15:43:40.102Z,99611.09
2022-11-15T15:46:10.614Z,99606.13
2022-11-15T15:48:40.289Z,99599.16
2022-11-15T15:51:18.519Z,99599.56
2022-11-15T15:53:48.284Z,99596.25
2022-11-15T15:56:15.942Z,99593.22
2022-11-15T15:58:43.560Z,99588.06
2022-11-15T16:01:11.322Z,99592.31
2022-11-15T16:03:39.001Z,99586.13
2022-11-15T16:06:07.180Z,99582.69
2022-11-15T16:08:53.223Z,99581.84
2022-11-15T16:11:23.812Z,99584.31
2022-11-15T16:13:51.524Z,99581.03
2022-11-15T16:16:19.754Z,99578.72
2022-11-15T16:18:47.481Z,99571.56
2022-11-15T16:21:15.114Z,99578.91
2022-11-15T16:23:44.083Z,99570.09
2022-11-15T16:26:21.361Z,99577.25
2022-11-15T16:28:49.082Z,99570.75
2022-11-15T16:31:19.104Z,99566.78
2022-11-15T16:33:47.089Z,99560.44
2022-11-15T16:36:28.449Z,99564.59
2022-11-15T16:38:59.929Z,99554.75
2022-11-15T16:41:27.946Z,99547.13
2022-11-15T16:43:55.638Z,99545.09
2022-11-15T16:46:24.737Z,99549.78
2022-11-15T16:48:53.839Z,99540.78
2022-11-15T16:51:21.983Z,99537.28
2022-11-15T16:53:50.421Z,99536.47
2022-11-15T16:56:25.577Z,99539.31
2022-11-15T16:58:54.684Z,99531.28
2022-11-15T17:01:28.021Z,99530.25
2022-11-15T17:03:56.289Z,99519.97
2022-11-15T17:06:25.296Z,99515.88
2022-11-15T17:08:53.516Z,99511.19
2022-11-15T17:11:23.695Z,99510.38
2022-11-15T17:13:51.571Z,99507.88
2022-11-15T17:16:19.884Z,99509.53
2022-11-15T17:18:52.247Z,99494.75
2022-11-15T17:21:21.982Z,99501.72
2022-11-15T17:23:49.934Z,99493.75
2022-11-15T17:26:29.485Z,99492.72
2022-11-15T17:29:01.378Z,99506.66
2022-11-15T17:31:30.827Z,99502.59
2022-11-15T17:33:58.539Z,99503.25
2022-11-15T17:36:26.245Z,99495.69
2022-11-15T17:38:59.087Z,99498.56
2022-11-15T17:41:27.892Z,99497.72
2022-11-15T17:43:57.885Z,99499.56
2022-11-15T17:46:28.075Z,99484.41
2022-11-15T17:48:56.616Z,99482.50
2022-11-15T17:51:24.412Z,99484.34
2022-11-15T17:53:53.273Z,99491.72
2022-11-15T17:56:22.422Z,99484.91
2022-11-15T17:58:51.652Z,99484.75
2022-11-15T18:01:20.885Z,99482.69
2022-11-15T18:03:50.735Z,99481.06
2022-11-15T18:06:20.057Z,99482.69
2022-11-15T18:08:49.444Z,99483.31
2022-11-15T18:11:20.124Z,99480.09
2022-11-15T18:13:52.347Z,99473.31
2022-11-15T18:16:23.060Z,99467.78
2022-11-15T18:18:52.225Z,99475.31
2022-11-15T18:21:21.821Z,99467.16
2022-11-15T18:23:50.511Z,99467.97
2022-11-15T18:26:21.870Z,99465.13
2022-11-15T18:28:52.113Z,99464.47
2022-11-15T18:31:21.794Z,99464.28
2022-11-15T18:33:53.166Z,99452.63
2022-11-15T18:36:24.187Z,99452.63
2022-11-15T18:38:58.154Z,99450.59
2022-11-15T18:41:28.561Z,99455.03
2022-11-15T18:43:56.925Z,99449.84
2022-11-15T18:46:26.360Z,99453.28
2022-11-15T18:48:59.001Z,99453.28
2022-11-15T18:51:30.880Z,99447.97
2022-11-15T18:54:02.308Z,99452.63
2022-11-15T18:56:32.040Z,99447.72
2022-11-15T18:59:03.853Z,99442.13
2022-11-15T19:01:33.882Z,99435.16
2022-11-15T19:04:05.957Z,99433.94
2022-11-15T19:06:39.265Z,99435.66
2022-11-15T19:09:08.141Z,99435.28
2022-11-15T19:11:38.904Z,99443.91
2022-11-15T19:14:08.690Z,99430.38
2022-11-15T19:16:38.048Z,99427.97
2022-11-15T19:19:08.358Z,99426.50
2022-11-15T19:21:40.157Z,99428.31
2022-11-15T19:24:08.247Z,99420.44
2022-11-15T19:26:36.841Z,99413.03
2022-11-15T19:29:05.295Z,99418.28
2022-11-15T19:31:34.278Z,99411.31
2022-11-15T19:34:04.432Z,99407.41
2022-11-15T19:36:34.202Z,99410.44
2022-11-15T19:39:09.807Z,99402.09
2022-11-15T19:41:38.948Z,99408.94
2022-11-15T19:44:07.347Z,99411.44
2022-11-15T19:46:36.003Z,99412.69
2022-11-15T19:49:03.756Z,99407.81
2022-11-15T19:51:31.849Z,99403.31
2022-11-15T19:54:06.673Z,99403.69
2022-11-15T19:56:36.607Z,99404.03
2022-11-15T19:59:05.732Z,99397.00
2022-11-15T20:01:36.209Z,99397.38
2022-11-15T20:04:04.647Z,99394.28
2022-11-15T20:06:34.416Z,99395.28
2022-11-15T20:09:02.812Z,99384.47
2022-11-15T20:11:38.080Z,99383.03
2022-11-15T20:14:11.478Z,99388.78
2022-11-15T20:16:39.844Z,99379.78
2022-11-15T20:19:08.790Z,99378.13
2022-11-15T20:21:37.081Z,99378.50
2022-11-15T20:24:05.566Z,99377.28
2022-11-15T20:26:33.575Z,99387.13
2022-11-15T20:29:03.237Z,99373.16
2022-11-15T20:31:33.141Z,99374.00
2022-11-15T20:34:01.275Z,99376.47
2022-11-15T20:36:29.207Z,99370.97
2022-11-15T20:38:58.359Z,99366.47
2022-11-15T20:41:26.919Z,99363.16
2022-11-15T20:43:55.513Z,99362.16
2022-11-15T20:46:23.548Z,99352.75
2022-11-15T20:48:52.681Z,99340.88
2022-11-15T20:51:21.403Z,99346.22
2022-11-15T20:53:49.187Z,99352.56
2022-11-15T20:56:19.321Z,99350.72
2022-11-15T20:58:47.569Z,99341.31
2022-11-15T21:01:17.753Z,99351.22
2022-11-15T21:03:48.543Z,99340.16
2022-11-15T21:06:20.862Z,99334.44
2022-11-15T21:09:06.600Z,99332.41
2022-11-15T21:11:51.822Z,99323.97
2022-11-15T21:14:19.735Z,99330.31
2022-11-15T21:16:47.356Z,99321.31
2022-11-15T21:19:15.122Z,99329.94
2022-11-15T21:21:44.164Z,99330.38
2022-11-15T21:24:12.424Z,99328.72
2022-11-15T21:26:40.260Z,99333.19
2022-11-15T21:29:07.983Z,99327.06
2022-11-15T21:31:35.960Z,99327.44
2022-11-15T21:34:04.385Z,99342.41
2022-11-15T21:36:36.759Z,99334.00
2022-11-15T21:39:06.293Z,99333.63
2022-11-15T21:41:34.144Z,99337.38
2022-11-15T21:44:02.662Z,99331.63
2022-11-15T21:46:31.825Z,99330.78
2022-11-15T21:48:59.830Z,99329.78
2022-11-15T21:51:27.758Z,99326.94
2022-11-15T21:53:56.694Z,99323.41
2022-11-15T21:56:27.138Z,99328.28
2022-11-15T21:58:55.609Z,99314.34
2022-11-15T22:01:42.337Z,99311.41
2022-11-15T22:04:10.173Z,99313.44
2022-11-15T22:06:38.029Z,99309.50
2022-11-15T22:09:06.936Z,99308.00
2022-11-15T22:11:36.237Z,99312.91
2022-11-15T22:14:04.351Z,99303.09
2022-11-15T22:16:33.129Z,99301.41
2022-11-15T22:19:01.862Z,99302.59
2022-11-15T22:21:29.714Z,99292.97
2022-11-15T22:23:57.957Z,99296.38
2022-11-15T22:26:25.805Z,99291.41
2022-11-15T22:28:54.975Z,99278.56
2022-11-15T22:31:22.748Z,99290.41
2022-11-15T22:33:51.210Z,99288.13
2022-11-15T22:36:19.200Z,99285.22
2022-11-15T22:38:46.949Z,99284.03
2022-11-15T22:41:14.813Z,99283.56
2022-11-15T22:43:42.639Z,99281.09
2022-11-15T22:46:11.943Z,99274.97
2022-11-15T22:48:40.319Z,99264.31
2022-11-15T22:51:08.794Z,99270.09
2022-11-15T22:53:37.086Z,99269.25
2022-11-15T22:56:06.783Z,99271.78
2022-11-15T22:58:35.509Z,99256.25
2022-11-15T23:01:06.015Z,99257.09
2022-11-15T23:03:36.045Z,99259.53
2022-11-15T23:06:06.352Z,99264.03
2022-11-15T23:08:34.647Z,99272.41
2022-11-15T23:11:21.165Z,99266.84
2022-11-15T23:13:51.452Z,99268.88
2022-11-15T23:16:25.923Z,99263.81
2022-11-15T23:18:57.615Z,99259.94
2022-11-15T23:21:45.292Z,99261.59
2022-11-15T23:24:14.835Z,99249.22
2022-11-15T23:26:44.130Z,99246.19
2022-11-15T23:29:14.369Z,99254.44
2022-11-15T23:32:02.474Z,99254.16
2022-11-15T23:34:33.072Z,99252.69
2022-11-15T23:37:01.090Z,99253.72
2022-11-15T23:39:29.061Z,99256.59
2022-11-15T23:41:57.362Z,99255.97
2022-11-15T23:44:25.892Z,99251.47
2022-11-15T23:46:53.941Z,99251.28
2022-11-15T23:49:22.337Z,99245.94
2022-11-15T23:51:51.468Z,99243.81
2022-11-15T23:54:19.225Z,99239.94
2022-11-15T23:56:47.050Z,99243.03
2022-11-15T23:59:14.858Z,99241.16
